Main page
METAR-TAF:

METAR-TAF

Airports :

Auckland Airport

Auckland, New Zealand

latitude: 37-01S, longitude: 174-48E, elevation: 7 m

Current weather observation

The report was made 28 minutes ago, at 01:00 UTC
Wind 3 kt from the South/Southwest
Temperature 19°C
Humidity 49%
Pressure 1033 hPa
Visibility 10 km or more

METAR: NZAA 190100Z AUTO 21003KT 9999 NCD 19/08 Q1033 NOSIG

Time: 13:28 (01:28 UTC)

Forecast

The report was made 2 hours and 24 minutes ago, at 23:04 UTC
Forecast valid from 19 at 00 UTC to 20 at 00 UTC
Wind 10 kt from the South/Southwest
Visibility 10 km or more
Few clouds at a height of 3500 ft
Becoming
from 19 at 06 UTC to 19 at 08 UTC
Wind 5 kt from the East/Southeast

TAF: NZAA 182304Z 1900/2000 20010KT 9999 FEW035 BECMG 1906/1908 12005KT

Weather observations and forecasts of more than 4000 airports (METAR and TAF reports).

The available stations are represented by yellow and red dots on the map.

Hover mouse over dot to see the name of the station.

Then click to see weather observations and forecasts.

To change the map : click on the green buttons with a black cross to zoom in, on the green button with a dash to zoom out, or on the green arrows for adjacent maps.


METAR-TAF: